Time;durP1;ratioP1;P1;durP2;ratioP2;P2;SDS_P1;SDS_P2;PMS_P1;PMS_P2;Temp;Humidity;BMP_temperature;BMP_pressure;BME280_temperature;BME280_humidity;BME280_pressure;Samples;Min_cycle;Max_cycle;Signal;HPM_P1;HPM_P2
2023/12/28 00:00:52;;;;;;;385.73;364.90;;;;;;;;;;5011632;28;20480;-39
2023/12/28 00:03:20;;;;;;;385.37;364.50;;;;;;;;;;5011671;28;20452;-39
2023/12/28 00:05:47;;;;;;;386.47;366.20;;;;;;;;;;5010999;28;20944;-37
2023/12/28 00:08:15;;;;;;;382.93;361.97;;;;;;;;;;5011191;28;20459;-37
2023/12/28 00:10:44;;;;;;;383.27;362.30;;;;;;;;;;5011544;28;20445;-37
2023/12/28 00:13:11;;;;;;;372.07;351.80;;;;;;;;;;5011507;28;20444;-38
2023/12/28 00:15:39;;;;;;;389.00;368.30;;;;;;;;;;5010917;28;20468;-38
2023/12/28 00:18:07;;;;;;;383.40;362.30;;;;;;;;;;5010838;28;20437;-37
2023/12/28 00:20:35;;;;;;;358.43;337.60;;;;;;;;;;5006240;28;20446;-38
2023/12/28 00:23:02;;;;;;;376.93;356.23;;;;;;;;;;5009164;28;20499;-38
2023/12/28 00:25:30;;;;;;;380.77;360.47;;;;;;;;;;5010540;28;20968;-38
2023/12/28 00:27:59;;;;;;;372.07;351.43;;;;;;;;;;5011050;28;20823;-37
2023/12/28 00:30:27;;;;;;;373.63;353.40;;;;;;;;;;5011537;28;20448;-41
2023/12/28 00:32:55;;;;;;;380.23;359.93;;;;;;;;;;5007929;28;20834;-37
2023/12/28 00:35:22;;;;;;;371.27;350.67;;;;;;;;;;5002287;28;20469;-38
2023/12/28 00:37:50;;;;;;;377.00;356.27;;;;;;;;;;5011343;28;20436;-38
2023/12/28 00:40:17;;;;;;;370.77;350.60;;;;;;;;;;5011430;28;20479;-38
2023/12/28 00:42:45;;;;;;;378.27;358.13;;;;;;;;;;5011364;28;20498;-37
2023/12/28 00:45:14;;;;;;;375.10;354.37;;;;;;;;;;5010857;28;20477;-38
2023/12/28 00:47:43;;;;;;;378.30;357.77;;;;;;;;;;5011197;28;20437;-38
2023/12/28 00:50:11;;;;;;;378.00;358.30;;;;;;;;;;5011367;28;20445;-37
2023/12/28 00:52:39;;;;;;;376.53;356.43;;;;;;;;;;5011625;28;20444;-37
2023/12/28 00:55:07;;;;;;;380.20;359.70;;;;;;;;;;5011460;28;20480;-38
2023/12/28 00:57:35;;;;;;;373.03;352.90;;;;;;;;;;5010961;28;20444;-37
2023/12/28 01:00:03;;;;;;;388.43;367.53;;;;;;;;;;5011421;28;20453;-37
2023/12/28 01:02:32;;;;;;;373.90;353.57;;;;;;;;;;5013612;28;20519;-40
2023/12/28 01:04:59;;;;;;;371.53;351.63;;;;;;;;;;5014193;28;20464;-37
2023/12/28 01:07:27;;;;;;;369.83;349.43;;;;;;;;;;5012182;28;20475;-38
2023/12/28 01:09:54;;;;;;;371.10;350.87;;;;;;;;;;5014572;28;20441;-38
2023/12/28 01:12:22;;;;;;;372.67;352.27;;;;;;;;;;5014296;28;20527;-38
2023/12/28 01:14:50;;;;;;;372.27;352.10;;;;;;;;;;5014142;28;20480;-38
2023/12/28 01:17:19;;;;;;;367.50;347.20;;;;;;;;;;5014510;28;20519;-38
2023/12/28 01:19:48;;;;;;;383.70;363.00;;;;;;;;;;5014779;28;20445;-38
2023/12/28 01:22:16;;;;;;;381.57;361.07;;;;;;;;;;5006458;28;20433;-38
2023/12/28 01:24:46;;;;;;;355.63;335.43;;;;;;;;;;5010321;28;21010;-38
2023/12/28 01:27:14;;;;;;;371.83;351.70;;;;;;;;;;5013970;28;20804;-37
2023/12/28 01:29:42;;;;;;;376.13;355.93;;;;;;;;;;5010638;28;20448;-38
2023/12/28 01:32:09;;;;;;;368.73;347.73;;;;;;;;;;5014175;28;20532;-38
2023/12/28 01:34:37;;;;;;;367.20;346.67;;;;;;;;;;5014105;28;20461;-37
2023/12/28 01:37:07;;;;;;;373.97;353.10;;;;;;;;;;5014087;28;20502;-39
2023/12/28 01:39:34;;;;;;;371.07;350.37;;;;;;;;;;5014002;28;20939;-38
2023/12/28 01:42:01;;;;;;;369.97;350.10;;;;;;;;;;5013943;28;20991;-38
2023/12/28 01:44:29;;;;;;;374.23;354.50;;;;;;;;;;5013504;28;20996;-41
2023/12/28 01:46:57;;;;;;;373.43;353.30;;;;;;;;;;5013935;28;20524;-37
2023/12/28 01:49:24;;;;;;;376.20;355.97;;;;;;;;;;5010663;28;20441;-38
2023/12/28 01:51:52;;;;;;;374.43;354.67;;;;;;;;;;5014453;28;20491;-38
2023/12/28 01:54:21;;;;;;;381.03;360.77;;;;;;;;;;5013110;28;20476;-38
2023/12/28 01:56:49;;;;;;;373.80;354.00;;;;;;;;;;5013928;28;20983;-38
2023/12/28 01:59:18;;;;;;;368.37;348.97;;;;;;;;;;5013673;28;20535;-39
2023/12/28 02:01:46;;;;;;;370.33;351.00;;;;;;;;;;5014291;28;20478;-38
2023/12/28 02:04:14;;;;;;;365.17;346.13;;;;;;;;;;5013119;28;20449;-39
2023/12/28 02:06:42;;;;;;;361.80;341.77;;;;;;;;;;5013894;28;20960;-38
2023/12/28 02:09:09;;;;;;;368.47;349.27;;;;;;;;;;5013696;28;20476;-38
2023/12/28 02:11:38;;;;;;;369.30;349.70;;;;;;;;;;5013788;28;20452;-39
2023/12/28 02:14:06;;;;;;;363.40;344.40;;;;;;;;;;5013001;28;20448;-39
2023/12/28 02:16:36;;;;;;;377.37;358.27;;;;;;;;;;5013891;28;21171;-38
2023/12/28 02:19:15;;;;;;;384.93;365.13;;;;;;;;;;5012690;28;20820;-38
2023/12/28 02:21:42;;;;;;;353.00;333.50;;;;;;;;;;5009616;28;20475;-38
2023/12/28 02:24:10;;;;;;;372.33;352.73;;;;;;;;;;5012912;28;20448;-38
2023/12/28 02:26:39;;;;;;;385.37;365.17;;;;;;;;;;5013103;28;20453;-40
2023/12/28 02:29:08;;;;;;;364.70;345.20;;;;;;;;;;5012941;28;20468;-39
2023/12/28 02:31:38;;;;;;;373.40;354.30;;;;;;;;;;5013456;28;20528;-38
2023/12/28 02:34:07;;;;;;;371.07;351.67;;;;;;;;;;5012599;28;20441;-39
2023/12/28 02:36:36;;;;;;;367.27;348.53;;;;;;;;;;5012281;28;20926;-39
2023/12/28 02:39:04;;;;;;;365.40;346.40;;;;;;;;;;5012731;28;20916;-40
2023/12/28 02:41:32;;;;;;;360.93;342.00;;;;;;;;;;4997684;28;20469;-38
2023/12/28 02:44:01;;;;;;;359.20;340.33;;;;;;;;;;5013088;28;20441;-37
2023/12/28 02:46:29;;;;;;;359.47;340.83;;;;;;;;;;5012064;28;20487;-38
2023/12/28 02:48:57;;;;;;;356.80;337.90;;;;;;;;;;5012828;28;20445;-38
2023/12/28 02:51:25;;;;;;;360.47;342.17;;;;;;;;;;5012866;28;20838;-40
2023/12/28 02:53:52;;;;;;;359.07;340.77;;;;;;;;;;5012807;28;20540;-38
2023/12/28 02:56:20;;;;;;;364.70;346.03;;;;;;;;;;5012058;28;20552;-38
2023/12/28 02:58:47;;;;;;;362.77;344.17;;;;;;;;;;5012550;28;20516;-38
2023/12/28 03:01:16;;;;;;;366.17;347.53;;;;;;;;;;5012385;28;20448;-38
2023/12/28 03:03:44;;;;;;;357.83;339.50;;;;;;;;;;5012167;28;20449;-38
2023/12/28 03:06:12;;;;;;;355.30;336.60;;;;;;;;;;5011855;28;20465;-38
2023/12/28 03:08:39;;;;;;;352.20;334.10;;;;;;;;;;5008705;28;20444;-38
2023/12/28 03:11:07;;;;;;;373.30;355.00;;;;;;;;;;5012163;28;20441;-38
2023/12/28 03:13:34;;;;;;;369.47;351.27;;;;;;;;;;5012006;28;20437;-38
2023/12/28 03:16:02;;;;;;;353.03;334.27;;;;;;;;;;5007894;28;20512;-38
2023/12/28 03:18:31;;;;;;;368.40;350.40;;;;;;;;;;5012292;28;20508;-38
2023/12/28 03:20:59;;;;;;;357.53;339.53;;;;;;;;;;5011586;28;20536;-38
2023/12/28 03:23:26;;;;;;;361.30;343.57;;;;;;;;;;5011871;28;20476;-38
2023/12/28 03:25:54;;;;;;;351.63;333.50;;;;;;;;;;5011323;28;20468;-38
2023/12/28 03:28:21;;;;;;;348.97;330.90;;;;;;;;;;5011657;28;21011;-38
2023/12/28 03:30:49;;;;;;;362.40;343.73;;;;;;;;;;5012256;28;20854;-38
2023/12/28 03:33:17;;;;;;;351.23;333.20;;;;;;;;;;5012228;28;20516;-38
2023/12/28 03:35:46;;;;;;;349.63;332.03;;;;;;;;;;5011385;28;20465;-38
2023/12/28 03:38:13;;;;;;;346.57;328.50;;;;;;;;;;5011787;28;20531;-38
2023/12/28 03:40:41;;;;;;;355.03;337.07;;;;;;;;;;5012355;28;20441;-38
2023/12/28 03:43:08;;;;;;;357.50;339.70;;;;;;;;;;5011860;28;20517;-38
2023/12/28 03:45:36;;;;;;;356.53;338.10;;;;;;;;;;5011374;28;20535;-39
2023/12/28 03:48:04;;;;;;;363.23;344.83;;;;;;;;;;5012145;28;21003;-38
2023/12/28 03:50:32;;;;;;;374.57;356.03;;;;;;;;;;5011940;28;20448;-37
2023/12/28 03:53:01;;;;;;;369.73;351.50;;;;;;;;;;5011635;28;20489;-39
2023/12/28 03:55:28;;;;;;;368.67;350.07;;;;;;;;;;5011264;28;20884;-38
2023/12/28 03:57:56;;;;;;;370.30;351.60;;;;;;;;;;5011663;28;20983;-39
2023/12/28 04:00:24;;;;;;;361.10;342.23;;;;;;;;;;5011470;28;20445;-38
2023/12/28 04:02:52;;;;;;;369.53;349.70;;;;;;;;;;5011643;28;20441;-38
2023/12/28 04:05:19;;;;;;;388.37;368.73;;;;;;;;;;5011186;28;20469;-39
2023/12/28 04:07:47;;;;;;;381.80;361.97;;;;;;;;;;5011775;28;20519;-39
2023/12/28 04:10:16;;;;;;;354.53;334.87;;;;;;;;;;5011403;28;20448;-37
2023/12/28 04:12:44;;;;;;;370.73;350.43;;;;;;;;;;5011822;28;20460;-38
2023/12/28 04:15:11;;;;;;;370.50;350.37;;;;;;;;;;5010796;28;20523;-38
2023/12/28 04:17:39;;;;;;;365.03;345.53;;;;;;;;;;5011133;28;20499;-39
2023/12/28 04:20:07;;;;;;;369.23;349.30;;;;;;;;;;5010231;28;20445;-37
2023/12/28 04:22:35;;;;;;;374.97;354.33;;;;;;;;;;5011595;28;20437;-38
2023/12/28 04:25:02;;;;;;;384.67;364.43;;;;;;;;;;5011028;28;20519;-38
2023/12/28 04:27:31;;;;;;;386.57;366.20;;;;;;;;;;5011183;28;20515;-38
2023/12/28 04:29:59;;;;;;;391.13;371.27;;;;;;;;;;5011350;28;20789;-38
2023/12/28 04:32:27;;;;;;;373.33;353.07;;;;;;;;;;5011200;28;20476;-38
2023/12/28 04:34:54;;;;;;;375.83;355.73;;;;;;;;;;5010580;28;20907;-38
2023/12/28 04:37:22;;;;;;;382.07;361.70;;;;;;;;;;5015815;28;20484;-36
2023/12/28 04:39:49;;;;;;;378.40;358.60;;;;;;;;;;5017336;28;20539;-36
2023/12/28 04:42:17;;;;;;;374.17;354.63;;;;;;;;;;5016702;28;20896;-36
2023/12/28 04:44:46;;;;;;;364.70;344.80;;;;;;;;;;5015963;28;20471;-37
2023/12/28 04:47:14;;;;;;;370.23;351.27;;;;;;;;;;5016467;28;20460;-36
2023/12/28 04:49:41;;;;;;;354.83;336.83;;;;;;;;;;5016654;28;20445;-36
2023/12/28 04:52:09;;;;;;;360.33;341.93;;;;;;;;;;5017001;28;20444;-36
2023/12/28 04:54:36;;;;;;;356.60;338.40;;;;;;;;;;5011300;28;21254;-38
2023/12/28 04:57:04;;;;;;;349.20;331.40;;;;;;;;;;5016390;28;20972;-36
2023/12/28 04:59:32;;;;;;;343.57;325.57;;;;;;;;;;5015274;28;20448;-36
2023/12/28 05:02:01;;;;;;;323.37;305.97;;;;;;;;;;5016999;28;20450;-36
2023/12/28 05:04:28;;;;;;;321.93;303.47;;;;;;;;;;5015218;28;20828;-36
2023/12/28 05:06:57;;;;;;;323.57;307.27;;;;;;;;;;5014958;28;20852;-38
2023/12/28 05:09:25;;;;;;;318.30;301.90;;;;;;;;;;5012333;28;20445;-36
2023/12/28 05:11:52;;;;;;;317.40;300.93;;;;;;;;;;5016042;28;20441;-36
2023/12/28 05:14:20;;;;;;;319.13;302.43;;;;;;;;;;5015214;28;20472;-36
2023/12/28 05:16:47;;;;;;;309.30;293.33;;;;;;;;;;5016958;28;20477;-36
2023/12/28 05:19:16;;;;;;;309.23;292.80;;;;;;;;;;5016294;28;20443;-36
2023/12/28 05:21:44;;;;;;;307.53;291.93;;;;;;;;;;5014064;28;20459;-37
2023/12/28 05:24:12;;;;;;;314.40;298.10;;;;;;;;;;5011341;28;20442;-36
2023/12/28 05:26:39;;;;;;;309.57;294.17;;;;;;;;;;5000697;28;20441;-37
2023/12/28 05:29:07;;;;;;;305.70;289.63;;;;;;;;;;5016041;28;20879;-36
2023/12/28 05:31:34;;;;;;;304.63;288.60;;;;;;;;;;5015817;28;20469;-36
2023/12/28 05:34:03;;;;;;;305.83;289.93;;;;;;;;;;5016038;28;20535;-36
2023/12/28 05:36:32;;;;;;;319.53;303.67;;;;;;;;;;5015308;28;20979;-36
2023/12/28 05:39:00;;;;;;;323.97;307.43;;;;;;;;;;5015956;28;20473;-36
2023/12/28 05:41:28;;;;;;;304.63;288.43;;;;;;;;;;5016200;28;20528;-36
2023/12/28 05:43:56;;;;;;;306.00;290.73;;;;;;;;;;5016097;28;20498;-37
2023/12/28 05:46:23;;;;;;;298.33;283.00;;;;;;;;;;5011615;28;20499;-36
2023/12/28 05:48:51;;;;;;;301.13;285.87;;;;;;;;;;5014409;28;20495;-36
2023/12/28 05:51:19;;;;;;;301.50;285.70;;;;;;;;;;5015799;28;20437;-36
2023/12/28 05:53:48;;;;;;;306.10;290.73;;;;;;;;;;5015342;28;20804;-36
2023/12/28 05:56:15;;;;;;;294.10;278.67;;;;;;;;;;5010749;28;20465;-36
2023/12/28 05:58:43;;;;;;;291.17;276.67;;;;;;;;;;5014609;28;20556;-36
2023/12/28 06:01:10;;;;;;;293.97;279.10;;;;;;;;;;5015118;28;20800;-36
2023/12/28 06:03:38;;;;;;;290.20;275.40;;;;;;;;;;5016050;28;20438;-37
2023/12/28 06:06:07;;;;;;;300.63;285.87;;;;;;;;;;5014223;28;20457;-36
2023/12/28 06:08:35;;;;;;;280.07;266.07;;;;;;;;;;5010151;28;20444;-36
2023/12/28 06:11:04;;;;;;;279.60;264.80;;;;;;;;;;5015706;28;20499;-39
2023/12/28 06:13:31;;;;;;;282.70;267.80;;;;;;;;;;5008301;28;20499;-36
2023/12/28 06:15:59;;;;;;;281.00;266.70;;;;;;;;;;5012257;28;20806;-36
2023/12/28 06:18:26;;;;;;;282.67;268.57;;;;;;;;;;5014336;28;20480;-37
2023/12/28 06:20:55;;;;;;;280.37;266.40;;;;;;;;;;5011771;28;20960;-37
2023/12/28 06:23:22;;;;;;;274.60;260.60;;;;;;;;;;5014907;28;20983;-37
2023/12/28 06:25:50;;;;;;;290.00;275.47;;;;;;;;;;5013869;28;21000;-36
2023/12/28 06:28:20;;;;;;;282.77;268.53;;;;;;;;;;5013722;28;20465;-40
2023/12/28 06:30:48;;;;;;;283.73;269.00;;;;;;;;;;5014888;28;20445;-36
2023/12/28 06:33:16;;;;;;;285.37;270.87;;;;;;;;;;5014347;28;20441;-36
2023/12/28 06:35:43;;;;;;;279.83;266.03;;;;;;;;;;4998663;28;20493;-36
2023/12/28 06:38:11;;;;;;;280.30;266.00;;;;;;;;;;5014834;28;20559;-36
2023/12/28 06:40:39;;;;;;;288.47;273.13;;;;;;;;;;5009639;28;20495;-39
2023/12/28 06:43:06;;;;;;;283.10;269.10;;;;;;;;;;5011671;28;20511;-36
2023/12/28 06:45:35;;;;;;;275.47;261.57;;;;;;;;;;5014063;28;20487;-37
2023/12/28 06:48:03;;;;;;;273.33;259.00;;;;;;;;;;5010744;28;20470;-36
2023/12/28 06:50:31;;;;;;;273.73;259.93;;;;;;;;;;5013243;28;20503;-39
2023/12/28 06:52:59;;;;;;;273.80;260.30;;;;;;;;;;5011407;28;20449;-39
2023/12/28 06:55:26;;;;;;;281.90;268.20;;;;;;;;;;5010433;28;20461;-36
2023/12/28 06:57:54;;;;;;;272.57;259.17;;;;;;;;;;5013551;28;20481;-36
2023/12/28 07:00:22;;;;;;;266.77;253.30;;;;;;;;;;5011019;28;20883;-38
2023/12/28 07:02:51;;;;;;;255.70;242.30;;;;;;;;;;5014416;28;20445;-38
2023/12/28 07:05:19;;;;;;;260.80;247.20;;;;;;;;;;5014693;28;20465;-36
2023/12/28 07:07:46;;;;;;;267.03;253.63;;;;;;;;;;5009527;28;20441;-36
2023/12/28 07:10:14;;;;;;;267.43;254.00;;;;;;;;;;5011139;28;21230;-36
2023/12/28 07:12:42;;;;;;;270.10;257.10;;;;;;;;;;5011948;28;20437;-36
2023/12/28 07:15:14;;;;;;;277.23;263.70;;;;;;;;;;5013964;28;20472;-37
2023/12/28 07:17:41;;;;;;;283.90;269.63;;;;;;;;;;5010794;28;20825;-40
2023/12/28 07:20:11;;;;;;;271.87;258.07;;;;;;;;;;5009356;28;20454;-36
2023/12/28 07:22:39;;;;;;;275.13;261.87;;;;;;;;;;5013357;28;20528;-36
2023/12/28 07:25:06;;;;;;;273.00;259.70;;;;;;;;;;5006390;28;20539;-37
2023/12/28 07:27:35;;;;;;;270.40;257.00;;;;;;;;;;5014606;28;20532;-37
2023/12/28 07:30:02;;;;;;;263.10;249.63;;;;;;;;;;5015630;28;20437;-36
2023/12/28 07:32:30;;;;;;;262.23;249.40;;;;;;;;;;5014190;28;20451;-36
2023/12/28 07:34:58;;;;;;;250.53;238.23;;;;;;;;;;5014162;28;20479;-37
2023/12/28 07:37:27;;;;;;;252.50;240.00;;;;;;;;;;5014344;28;20441;-36
2023/12/28 07:39:55;;;;;;;250.10;237.43;;;;;;;;;;5010283;28;20566;-36
2023/12/28 07:42:23;;;;;;;252.90;239.93;;;;;;;;;;5015143;28;20499;-36
2023/12/28 07:44:50;;;;;;;257.60;245.03;;;;;;;;;;5010299;28;20467;-36
2023/12/28 07:47:18;;;;;;;254.03;241.43;;;;;;;;;;5014584;28;20445;-36
2023/12/28 07:49:46;;;;;;;257.47;243.73;;;;;;;;;;5011216;28;20437;-37
2023/12/28 07:52:14;;;;;;;252.93;240.20;;;;;;;;;;5014234;28;20475;-36
2023/12/28 07:54:42;;;;;;;248.60;236.80;;;;;;;;;;5013815;28;20481;-36
2023/12/28 07:57:10;;;;;;;240.53;228.37;;;;;;;;;;5014254;28;20437;-36
2023/12/28 07:59:38;;;;;;;241.33;228.63;;;;;;;;;;5014898;28;20844;-36
2023/12/28 08:02:06;;;;;;;248.50;236.30;;;;;;;;;;5016078;28;21007;-37
2023/12/28 08:04:33;;;;;;;241.37;228.67;;;;;;;;;;5013612;28;20889;-36
2023/12/28 08:07:01;;;;;;;240.07;227.87;;;;;;;;;;5013836;28;20452;-36
2023/12/28 08:09:29;;;;;;;249.40;236.60;;;;;;;;;;5010752;28;20793;-37
2023/12/28 08:11:58;;;;;;;245.03;232.53;;;;;;;;;;5023307;28;20460;-38
2023/12/28 08:14:25;;;;;;;245.40;233.20;;;;;;;;;;5022671;28;20533;-36
2023/12/28 08:16:53;;;;;;;239.73;227.23;;;;;;;;;;5015227;28;20520;-36
2023/12/28 08:19:21;;;;;;;239.13;227.27;;;;;;;;;;5022044;28;20880;-37
2023/12/28 08:21:48;;;;;;;251.13;238.80;;;;;;;;;;5019250;28;20487;-36
2023/12/28 08:24:16;;;;;;;246.63;234.60;;;;;;;;;;5022110;28;21126;-36
2023/12/28 08:26:44;;;;;;;245.83;234.40;;;;;;;;;;5018387;28;20437;-36
2023/12/28 08:29:13;;;;;;;249.67;237.10;;;;;;;;;;5022577;28;20441;-36
2023/12/28 08:31:40;;;;;;;248.47;236.50;;;;;;;;;;5022307;28;20498;-37
2023/12/28 08:34:13;;;;;;;244.57;232.50;;;;;;;;;;5021401;28;20483;-36
2023/12/28 08:36:41;;;;;;;250.00;238.13;;;;;;;;;;5022068;28;20952;-36
2023/12/28 08:39:09;;;;;;;246.13;234.57;;;;;;;;;;5021573;28;20524;-36
2023/12/28 08:41:36;;;;;;;240.33;228.67;;;;;;;;;;5021136;28;20467;-37
2023/12/28 08:44:04;;;;;;;236.97;226.10;;;;;;;;;;5022167;28;20975;-37
2023/12/28 08:46:33;;;;;;;244.40;231.87;;;;;;;;;;5022702;28;20492;-37
2023/12/28 08:49:01;;;;;;;253.13;241.03;;;;;;;;;;5021034;28;20864;-36
2023/12/28 08:51:29;;;;;;;262.17;248.97;;;;;;;;;;5020599;28;20447;-39
2023/12/28 08:53:56;;;;;;;253.47;241.00;;;;;;;;;;5017544;28;20445;-36
2023/12/28 08:56:24;;;;;;;254.00;241.97;;;;;;;;;;5019902;28;20519;-37
2023/12/28 08:58:54;;;;;;;245.20;231.47;;;;;;;;;;5020661;28;20437;-37
2023/12/28 09:01:22;;;;;;;242.93;231.23;;;;;;;;;;5015350;28;20445;-36
2023/12/28 09:03:52;;;;;;;231.50;219.73;;;;;;;;;;5020631;28;20452;-37
2023/12/28 09:06:20;;;;;;;234.63;222.50;;;;;;;;;;5019647;28;20991;-39
2023/12/28 09:08:51;;;;;;;238.40;226.97;;;;;;;;;;5016831;28;20468;-38
2023/12/28 09:11:19;;;;;;;246.23;234.33;;;;;;;;;;5003933;28;20497;-36
2023/12/28 09:13:46;;;;;;;250.93;238.23;;;;;;;;;;4987888;28;20439;-36
2023/12/28 09:16:15;;;;;;;258.33;245.50;;;;;;;;;;5013664;28;20505;-36
2023/12/28 09:18:43;;;;;;;243.47;231.00;;;;;;;;;;5017909;28;20472;-39
2023/12/28 09:21:13;;;;;;;250.90;238.53;;;;;;;;;;5010265;28;20879;-36
2023/12/28 09:23:41;;;;;;;254.40;242.47;;;;;;;;;;5014730;28;20437;-37
2023/12/28 09:26:08;;;;;;;246.27;234.13;;;;;;;;;;5016594;28;20488;-40
2023/12/28 09:28:36;;;;;;;250.10;236.93;;;;;;;;;;5016157;28;20472;-36
2023/12/28 09:31:04;;;;;;;237.17;226.00;;;;;;;;;;5004785;28;20947;-37
2023/12/28 09:33:32;;;;;;;240.87;229.03;;;;;;;;;;4995738;28;20443;-36
2023/12/28 09:36:00;;;;;;;237.93;226.13;;;;;;;;;;5015622;28;20469;-38
2023/12/28 09:38:29;;;;;;;244.20;232.20;;;;;;;;;;5012192;28;20444;-36
2023/12/28 09:40:59;;;;;;;270.93;257.70;;;;;;;;;;5015699;28;20519;-36
2023/12/28 09:43:27;;;;;;;300.97;286.90;;;;;;;;;;5016695;28;20437;-36
2023/12/28 09:45:55;;;;;;;294.77;280.63;;;;;;;;;;5015726;28;20460;-36
2023/12/28 09:48:23;;;;;;;289.63;274.83;;;;;;;;;;5015677;28;20879;-36
2023/12/28 09:50:54;;;;;;;298.30;283.50;;;;;;;;;;5015821;28;20448;-36
2023/12/28 09:53:23;;;;;;;299.00;285.30;;;;;;;;;;5016315;28;20491;-36
2023/12/28 09:55:52;;;;;;;282.87;269.03;;;;;;;;;;5013302;28;20458;-38
2023/12/28 09:58:20;;;;;;;276.63;263.10;;;;;;;;;;5013550;28;20500;-36
2023/12/28 10:00:48;;;;;;;283.80;269.27;;;;;;;;;;5009940;28;20558;-36
2023/12/28 10:03:16;;;;;;;272.43;258.83;;;;;;;;;;5015464;28;20437;-37
2023/12/28 10:05:45;;;;;;;272.27;258.97;;;;;;;;;;5015292;28;20465;-38
2023/12/28 10:08:13;;;;;;;266.33;253.33;;;;;;;;;;5012389;28;20544;-37
2023/12/28 10:10:41;;;;;;;264.77;251.80;;;;;;;;;;5016472;28;20441;-36
2023/12/28 10:13:11;;;;;;;270.80;256.97;;;;;;;;;;5016638;28;20489;-37
2023/12/28 10:15:39;;;;;;;272.60;258.70;;;;;;;;;;5010132;28;20564;-36
2023/12/28 10:18:07;;;;;;;269.80;256.23;;;;;;;;;;5014199;28;20437;-36
2023/12/28 10:20:35;;;;;;;275.17;260.83;;;;;;;;;;5007350;28;20474;-36
2023/12/28 10:23:02;;;;;;;265.43;252.17;;;;;;;;;;5016230;28;20460;-36
2023/12/28 10:25:32;;;;;;;262.47;249.17;;;;;;;;;;5015349;28;20567;-37
2023/12/28 10:28:04;;;;;;;260.30;247.30;;;;;;;;;;4992815;28;20445;-37
2023/12/28 10:30:33;;;;;;;267.97;254.47;;;;;;;;;;5009898;28;20505;-37
2023/12/28 10:33:02;;;;;;;263.67;250.27;;;;;;;;;;5000074;28;20469;-36
2023/12/28 10:35:31;;;;;;;266.57;253.10;;;;;;;;;;5015197;28;20492;-36
2023/12/28 10:38:00;;;;;;;264.10;250.97;;;;;;;;;;5015457;28;20437;-36
2023/12/28 10:40:28;;;;;;;252.93;240.03;;;;;;;;;;5015939;28;20484;-38
2023/12/28 10:42:59;;;;;;;252.73;239.83;;;;;;;;;;5014577;28;20929;-38
2023/12/28 10:45:27;;;;;;;262.40;248.03;;;;;;;;;;5015438;28;20473;-36
2023/12/28 10:48:05;;;;;;;256.80;243.63;;;;;;;;;;5015852;28;20449;-37
2023/12/28 10:50:37;;;;;;;257.50;243.83;;;;;;;;;;5015294;28;20464;-36
2023/12/28 10:53:09;;;;;;;253.37;240.57;;;;;;;;;;5001140;28;20524;-37
2023/12/28 10:55:41;;;;;;;252.23;238.90;;;;;;;;;;5010588;28;20475;-38
2023/12/28 10:58:11;;;;;;;249.10;235.90;;;;;;;;;;5011018;28;20491;-39
2023/12/28 11:00:42;;;;;;;250.03;236.43;;;;;;;;;;5013973;28;20523;-36
2023/12/28 11:03:12;;;;;;;252.90;238.80;;;;;;;;;;5015276;28;20473;-36
2023/12/28 11:05:41;;;;;;;247.23;234.03;;;;;;;;;;5014913;28;20472;-36
2023/12/28 11:08:09;;;;;;;248.10;234.20;;;;;;;;;;5009958;28;20882;-37
2023/12/28 11:10:37;;;;;;;243.20;230.60;;;;;;;;;;5012704;28;20441;-39
2023/12/28 11:13:06;;;;;;;245.80;232.20;;;;;;;;;;5009834;28;20464;-40
2023/12/28 11:15:34;;;;;;;248.00;235.43;;;;;;;;;;5010851;28;20551;-36
2023/12/28 11:18:02;;;;;;;240.63;227.67;;;;;;;;;;4996386;28;20474;-36
2023/12/28 11:22:59;;;;;;;247.27;234.20;;;;;;;;;;4989579;28;20864;-38
2023/12/28 11:25:31;;;;;;;251.50;237.70;;;;;;;;;;5002208;28;20560;-38
2023/12/28 11:27:59;;;;;;;254.07;239.97;;;;;;;;;;5011527;28;20488;-38
2023/12/28 11:30:27;;;;;;;254.87;241.93;;;;;;;;;;5011830;28;20824;-39
2023/12/28 11:32:57;;;;;;;253.90;239.87;;;;;;;;;;5007458;28;20789;-39
2023/12/28 11:35:32;;;;;;;261.77;247.47;;;;;;;;;;5008322;28;20489;-40
2023/12/28 11:38:06;;;;;;;266.60;252.73;;;;;;;;;;5011160;28;20439;-39
2023/12/28 11:40:40;;;;;;;248.13;234.37;;;;;;;;;;5004888;28;20501;-38
2023/12/28 11:43:18;;;;;;;256.30;242.00;;;;;;;;;;5009304;28;20447;-39
2023/12/28 11:45:50;;;;;;;264.20;249.80;;;;;;;;;;4986862;28;20463;-38
2023/12/28 11:48:25;;;;;;;258.23;244.03;;;;;;;;;;4991921;28;20528;-38
2023/12/28 11:50:58;;;;;;;247.33;232.40;;;;;;;;;;4989660;28;20469;-38
2023/12/28 11:53:27;;;;;;;256.33;241.57;;;;;;;;;;4982809;28;20505;-38
2023/12/28 11:56:01;;;;;;;255.60;241.03;;;;;;;;;;4987618;28;20466;-40
2023/12/28 11:58:28;;;;;;;251.37;238.23;;;;;;;;;;4990628;28;20449;-38
2023/12/28 12:00:57;;;;;;;258.40;244.80;;;;;;;;;;4988857;28;20900;-38
2023/12/28 12:03:25;;;;;;;249.20;235.77;;;;;;;;;;4980483;28;20498;-38
2023/12/28 12:05:54;;;;;;;255.60;242.03;;;;;;;;;;4989300;28;20532;-38
2023/12/28 12:08:21;;;;;;;261.30;247.33;;;;;;;;;;4991348;28;20445;-38
2023/12/28 12:11:00;;;;;;;267.40;252.53;;;;;;;;;;4983753;28;20462;-38
2023/12/28 12:13:28;;;;;;;282.33;268.23;;;;;;;;;;4988330;28;20438;-42
2023/12/28 12:15:56;;;;;;;271.07;256.17;;;;;;;;;;4990958;28;20552;-38
2023/12/28 12:18:24;;;;;;;290.57;277.00;;;;;;;;;;4991973;28;20533;-40
2023/12/28 12:20:52;;;;;;;279.93;265.87;;;;;;;;;;4991655;28;20481;-38
2023/12/28 12:23:20;;;;;;;290.50;274.80;;;;;;;;;;4991953;28;21197;-38
2023/12/28 12:25:47;;;;;;;278.90;263.57;;;;;;;;;;4990903;28;20528;-38
2023/12/28 12:28:16;;;;;;;279.30;264.83;;;;;;;;;;4987015;28;20445;-38
2023/12/28 12:30:50;;;;;;;282.07;265.40;;;;;;;;;;4988920;28;20465;-38
2023/12/28 12:33:18;;;;;;;270.57;255.10;;;;;;;;;;4992166;28;20473;-40
2023/12/28 12:35:46;;;;;;;270.47;255.33;;;;;;;;;;4995798;28;20472;-39
2023/12/28 12:38:14;;;;;;;270.07;254.77;;;;;;;;;;5002760;28;21107;-39
2023/12/28 12:40:42;;;;;;;271.80;257.37;;;;;;;;;;5011334;28;20520;-38
2023/12/28 12:43:09;;;;;;;269.47;255.10;;;;;;;;;;5003614;28;20467;-40
2023/12/28 12:45:39;;;;;;;271.53;254.97;;;;;;;;;;5010619;28;20988;-40
2023/12/28 12:48:07;;;;;;;262.23;246.90;;;;;;;;;;5003109;28;20437;-38
2023/12/28 12:50:35;;;;;;;257.37;243.33;;;;;;;;;;5004380;28;20446;-38
2023/12/28 12:53:03;;;;;;;264.30;249.53;;;;;;;;;;5002251;28;20500;-38
2023/12/28 12:55:30;;;;;;;257.60;243.23;;;;;;;;;;5002575;28;20472;-38
2023/12/28 12:57:58;;;;;;;259.47;244.73;;;;;;;;;;5010879;28;20437;-38
2023/12/28 13:00:26;;;;;;;246.57;232.60;;;;;;;;;;5011477;28;20473;-38
2023/12/28 13:02:56;;;;;;;254.73;240.73;;;;;;;;;;5014108;28;20983;-38
2023/12/28 13:05:25;;;;;;;252.27;238.13;;;;;;;;;;5014522;28;20469;-38
2023/12/28 13:07:52;;;;;;;249.23;236.60;;;;;;;;;;5014452;28;20449;-38
2023/12/28 13:10:20;;;;;;;253.07;240.43;;;;;;;;;;5014242;28;20487;-38
2023/12/28 13:12:47;;;;;;;258.33;243.60;;;;;;;;;;5014495;28;20449;-38
2023/12/28 13:15:15;;;;;;;261.63;248.20;;;;;;;;;;5014148;28;20456;-38
2023/12/28 13:17:43;;;;;;;267.63;252.77;;;;;;;;;;5010228;28;20499;-38
2023/12/28 13:20:12;;;;;;;256.20;242.90;;;;;;;;;;4998264;28;20441;-38
2023/12/28 13:22:40;;;;;;;254.30;239.10;;;;;;;;;;5013785;28;20489;-40
2023/12/28 13:25:08;;;;;;;246.70;233.00;;;;;;;;;;5013624;28;20457;-38
2023/12/28 13:27:35;;;;;;;257.83;243.97;;;;;;;;;;5012306;28;20445;-38
2023/12/28 13:30:04;;;;;;;252.17;238.63;;;;;;;;;;5013880;28;20448;-39
2023/12/28 13:32:31;;;;;;;245.40;232.60;;;;;;;;;;5010276;28;20469;-38
2023/12/28 13:34:59;;;;;;;247.80;234.83;;;;;;;;;;5010361;28;20468;-40
2023/12/28 13:37:31;;;;;;;255.67;242.30;;;;;;;;;;5004141;28;20449;-38
2023/12/28 13:39:59;;;;;;;257.70;243.97;;;;;;;;;;5003944;28;20868;-40
2023/12/28 13:42:27;;;;;;;270.20;254.60;;;;;;;;;;5013779;28;20898;-38
2023/12/28 13:44:55;;;;;;;255.80;242.03;;;;;;;;;;5009616;28;20501;-38
2023/12/28 13:47:22;;;;;;;258.30;244.70;;;;;;;;;;5005156;28;20817;-38
2023/12/28 13:49:50;;;;;;;257.33;243.73;;;;;;;;;;5013219;28;20941;-39
2023/12/28 13:52:17;;;;;;;250.57;236.90;;;;;;;;;;5006320;28;20463;-40
2023/12/28 13:54:46;;;;;;;258.33;245.40;;;;;;;;;;5005003;28;20557;-39
2023/12/28 13:57:14;;;;;;;252.23;238.77;;;;;;;;;;4996263;28;20479;-38
2023/12/28 13:59:41;;;;;;;252.63;240.30;;;;;;;;;;5008718;28;20437;-39